createdAt,value
2018-09-21T00:01:58.152Z,17.67
2018-09-21T00:04:27.408Z,28.40
2018-09-21T00:06:57.442Z,16.37
2018-09-21T00:09:27.209Z,12.47
2018-09-21T00:11:58.174Z,19.03
2018-09-21T00:14:40.662Z,19.33
2018-09-21T00:17:10.068Z,22.40
2018-09-21T00:19:39.234Z,18.43
2018-09-21T00:22:08.464Z,20.27
2018-09-21T00:24:37.482Z,22.43
2018-09-21T00:27:06.709Z,20.87
2018-09-21T00:29:35.642Z,27.20
2018-09-21T00:32:04.991Z,41.93
2018-09-21T00:34:34.498Z,16.00
2018-09-21T00:37:03.505Z,26.47
2018-09-21T00:39:32.676Z,19.50
2018-09-21T00:42:03.789Z,37.73
2018-09-21T00:44:34.347Z,26.97
2018-09-21T00:47:19.861Z,19.80
2018-09-21T00:52:39.674Z,14.60
2018-09-21T00:55:08.743Z,13.57
2018-09-21T00:57:37.833Z,24.57
2018-09-21T01:00:10.742Z,14.17
2018-09-21T01:02:44.908Z,13.93
2018-09-21T01:05:14.840Z,27.10
2018-09-21T01:07:44.176Z,45.70
2018-09-21T01:10:15.287Z,17.90
2018-09-21T01:12:44.579Z,21.97
2018-09-21T01:15:13.645Z,17.60
2018-09-21T01:17:42.822Z,26.87
2018-09-21T01:20:12.186Z,15.40
2018-09-21T01:22:41.756Z,16.40
2018-09-21T01:25:10.722Z,15.80
2018-09-21T01:27:39.715Z,15.23
2018-09-21T01:30:08.820Z,16.00
2018-09-21T01:32:39.210Z,27.73
2018-09-21T01:35:19.575Z,15.90
2018-09-21T01:37:56.477Z,22.13
2018-09-21T01:40:25.789Z,18.57
2018-09-21T01:42:54.848Z,10.87
2018-09-21T01:45:23.972Z,15.70
2018-09-21T01:47:53.017Z,20.73
2018-09-21T01:50:22.165Z,17.93
2018-09-21T01:52:51.621Z,17.10
2018-09-21T01:55:20.638Z,18.57
2018-09-21T01:57:49.830Z,35.00
2018-09-21T02:00:19.080Z,16.77
2018-09-21T02:05:57.269Z,19.17
2018-09-21T02:08:27.355Z,10.33
2018-09-21T02:10:56.729Z,12.10
2018-09-21T02:13:25.844Z,34.80
2018-09-21T02:15:55.147Z,19.20
2018-09-21T02:18:24.155Z,23.40
2018-09-21T02:20:54.451Z,16.30
2018-09-21T02:23:23.872Z,23.37
2018-09-21T02:25:52.991Z,28.53
2018-09-21T02:28:22.069Z,43.07
2018-09-21T02:30:51.581Z,18.73
2018-09-21T02:33:24.905Z,28.87
2018-09-21T02:35:54.924Z,31.70
2018-09-21T02:38:24.054Z,55.10
2018-09-21T02:40:53.074Z,23.43
2018-09-21T02:43:22.591Z,25.90
2018-09-21T02:45:51.524Z,20.90
2018-09-21T02:48:20.673Z,25.77
2018-09-21T02:50:49.705Z,21.97
2018-09-21T02:53:18.945Z,14.63
2018-09-21T02:55:48.141Z,18.43
2018-09-21T02:58:17.083Z,9.47
2018-09-21T03:00:46.243Z,16.03
2018-09-21T03:03:15.526Z,19.23
2018-09-21T03:05:44.569Z,16.40
2018-09-21T03:08:13.722Z,42.23
2018-09-21T03:10:42.790Z,14.20
2018-09-21T03:13:12.313Z,19.63
2018-09-21T03:15:41.268Z,20.60
2018-09-21T03:18:10.366Z,19.53
2018-09-21T03:20:39.707Z,22.60
2018-09-21T03:23:08.665Z,24.60
2018-09-21T03:25:39.028Z,22.40
2018-09-21T03:28:07.868Z,13.50
2018-09-21T03:30:36.870Z,21.00
2018-09-21T03:33:05.918Z,19.77
2018-09-21T03:35:34.985Z,21.53
2018-09-21T03:38:09.118Z,18.37
2018-09-21T03:40:40.945Z,19.70
2018-09-21T03:43:10.807Z,23.57
2018-09-21T03:45:40.180Z,13.03
2018-09-21T03:48:09.967Z,12.73
2018-09-21T03:50:39.052Z,12.87
2018-09-21T03:53:08.275Z,17.23
2018-09-21T03:55:37.825Z,20.53
2018-09-21T03:58:07.052Z,13.40
2018-09-21T04:00:36.423Z,14.77
2018-09-21T04:03:06.034Z,16.00
2018-09-21T04:05:35.178Z,22.33
2018-09-21T04:08:04.256Z,16.50
2018-09-21T04:10:33.330Z,18.77
2018-09-21T04:13:02.368Z,26.90
2018-09-21T04:15:33.033Z,12.70
2018-09-21T04:18:02.098Z,16.83
2018-09-21T04:20:31.760Z,20.77
2018-09-21T04:23:01.735Z,11.70
2018-09-21T04:25:31.522Z,9.90
2018-09-21T04:28:01.979Z,15.80
2018-09-21T04:30:31.333Z,13.33
2018-09-21T04:33:01.246Z,38.33
2018-09-21T04:35:34.069Z,19.57
2018-09-21T04:51:58.741Z,21.17
2018-09-21T04:54:29.065Z,20.03
2018-09-21T04:56:59.209Z,14.27
2018-09-21T04:59:30.139Z,14.23
2018-09-21T05:02:02.818Z,11.77
2018-09-21T05:04:35.253Z,14.67
2018-09-21T05:07:05.390Z,19.80
2018-09-21T05:09:36.053Z,19.47
2018-09-21T05:12:06.122Z,17.47
2018-09-21T05:14:37.979Z,21.47
2018-09-21T05:17:08.356Z,17.43
2018-09-21T05:19:42.635Z,21.50
2018-09-21T05:22:12.800Z,15.07
2018-09-21T05:24:43.635Z,26.10
2018-09-21T05:27:13.775Z,38.33
2018-09-21T05:29:44.125Z,21.37
2018-09-21T05:32:16.157Z,43.83
2018-09-21T05:34:47.242Z,26.37
2018-09-21T05:37:18.914Z,26.23
2018-09-21T05:39:48.989Z,21.47
2018-09-21T05:42:19.034Z,20.87
2018-09-21T05:44:49.586Z,22.40
2018-09-21T05:47:22.206Z,19.90
2018-09-21T05:49:54.208Z,30.87
2018-09-21T05:52:32.121Z,12.50
2018-09-21T05:55:02.390Z,24.07
2018-09-21T05:57:33.133Z,18.60
2018-09-21T06:00:03.442Z,26.80
2018-09-21T06:02:34.186Z,29.03
2018-09-21T06:05:10.429Z,22.37
2018-09-21T06:07:40.793Z,16.10
2018-09-21T06:10:11.676Z,16.60
2018-09-21T06:12:58.021Z,12.10
2018-09-21T06:15:27.903Z,22.20
2018-09-21T06:17:58.156Z,22.30
2018-09-21T06:20:29.399Z,14.00
2018-09-21T06:23:01.831Z,15.50
2018-09-21T06:25:34.651Z,20.23
2018-09-21T06:28:06.099Z,30.20
2018-09-21T06:30:36.234Z,29.83
2018-09-21T06:33:06.527Z,16.37
2018-09-21T06:35:40.415Z,16.87
2018-09-21T06:38:16.092Z,39.30
2018-09-21T06:40:49.772Z,13.97
2018-09-21T06:43:20.818Z,13.97
2018-09-21T06:45:50.710Z,13.10
2018-09-21T06:48:20.854Z,13.47
2018-09-21T06:50:56.620Z,14.90
2018-09-21T06:53:38.169Z,16.10
2018-09-21T06:56:08.288Z,17.73
2018-09-21T06:58:40.609Z,19.87
2018-09-21T07:01:10.083Z,15.50
2018-09-21T07:03:39.587Z,15.53
2018-09-21T07:06:10.222Z,16.97
2018-09-21T07:08:40.852Z,17.20
2018-09-21T07:11:11.653Z,15.97
2018-09-21T07:13:41.777Z,21.37
2018-09-21T07:16:22.103Z,18.13
2018-09-21T07:18:55.410Z,10.17
2018-09-21T07:21:27.137Z,20.43
2018-09-21T07:23:59.611Z,29.93
2018-09-21T07:26:31.490Z,24.40
2018-09-21T07:29:02.668Z,15.47
2018-09-21T07:31:32.557Z,13.93
2018-09-21T07:34:03.418Z,12.10
2018-09-21T07:36:33.762Z,18.43
2018-09-21T07:39:05.505Z,8.23
2018-09-21T07:41:37.367Z,15.70
2018-09-21T07:44:15.783Z,12.13
2018-09-21T07:46:49.616Z,9.20
2018-09-21T07:49:19.446Z,21.63
2018-09-21T07:51:51.618Z,11.03
2018-09-21T07:54:21.098Z,10.23
2018-09-21T07:56:50.625Z,10.90
2018-09-21T07:59:21.335Z,15.43
2018-09-21T08:01:52.553Z,8.57
2018-09-21T08:04:23.613Z,11.93
2018-09-21T08:06:53.347Z,22.20
2018-09-21T08:09:23.583Z,15.10
2018-09-21T08:11:53.646Z,13.47
2018-09-21T08:14:24.495Z,15.70
2018-09-21T08:16:55.867Z,21.23
2018-09-21T08:19:26.801Z,7.73
2018-09-21T08:21:57.344Z,20.67
2018-09-21T08:24:28.173Z,8.30
2018-09-21T08:26:59.757Z,14.80
2018-09-21T08:29:30.149Z,16.10
2018-09-21T08:32:02.025Z,12.30
2018-09-21T08:34:33.867Z,9.87
2018-09-21T08:37:06.809Z,18.77
2018-09-21T08:39:36.836Z,14.60
2018-09-21T08:42:06.557Z,12.37
2018-09-21T08:44:40.534Z,8.33
2018-09-21T08:47:19.127Z,19.63
2018-09-21T08:49:48.782Z,15.10
2018-09-21T08:52:18.368Z,10.27
2018-09-21T08:54:49.465Z,11.73
2018-09-21T08:57:18.660Z,15.70
2018-09-21T08:59:51.659Z,21.93
2018-09-21T09:02:22.228Z,15.33
2018-09-21T09:04:52.814Z,15.40
2018-09-21T09:07:22.973Z,21.10
2018-09-21T09:09:53.016Z,26.33
2018-09-21T09:12:24.154Z,32.23
2018-09-21T09:14:55.561Z,31.30
2018-09-21T09:17:26.848Z,24.33
2018-09-21T09:19:57.186Z,27.97
2018-09-21T09:22:27.163Z,39.87
2018-09-21T09:24:57.366Z,23.33
2018-09-21T09:27:28.346Z,36.20
2018-09-21T09:29:58.411Z,31.53
2018-09-21T09:32:28.953Z,18.17
2018-09-21T09:35:07.204Z,31.30
2018-09-21T09:37:39.091Z,17.13
2018-09-21T09:40:10.065Z,33.00
2018-09-21T09:42:40.027Z,28.10
2018-09-21T09:45:12.109Z,28.60
2018-09-21T09:47:47.172Z,22.40
2018-09-21T09:50:18.901Z,28.73
2018-09-21T09:52:48.997Z,25.80
2018-09-21T09:55:18.904Z,26.13
2018-09-21T09:57:51.751Z,20.23
2018-09-21T10:00:28.265Z,17.37
2018-09-21T10:03:00.489Z,26.63
2018-09-21T10:05:38.741Z,55.07
2018-09-21T10:10:57.504Z,28.63
2018-09-21T10:13:28.561Z,17.90
2018-09-21T10:16:04.821Z,41.80
2018-09-21T10:18:38.001Z,25.90
2018-09-21T10:21:08.348Z,25.47
2018-09-21T10:23:42.713Z,28.83
2018-09-21T10:26:13.750Z,21.13
2018-09-21T10:28:45.576Z,16.20
2018-09-21T10:31:15.781Z,19.03
2018-09-21T10:33:46.449Z,23.83
2018-09-21T10:36:18.942Z,24.03
2018-09-21T10:39:00.279Z,20.83
2018-09-21T10:41:37.182Z,20.60
2018-09-21T10:44:10.593Z,20.63
2018-09-21T10:46:46.516Z,20.87
2018-09-21T10:49:20.212Z,20.40
2018-09-21T10:52:17.754Z,26.70
2018-09-21T10:54:49.817Z,11.80
2018-09-21T10:57:20.441Z,20.37
2018-09-21T10:59:52.118Z,23.43
2018-09-21T11:02:22.523Z,23.20
2018-09-21T11:12:29.952Z,15.83
2018-09-21T11:15:13.420Z,29.13
2018-09-21T11:17:50.606Z,18.70
2018-09-21T11:20:27.583Z,19.03
2018-09-21T11:23:01.408Z,18.07
2018-09-21T11:25:53.212Z,23.50
2018-09-21T11:28:42.394Z,40.50
2018-09-21T11:31:14.409Z,26.33
2018-09-21T11:34:07.150Z,35.47
2018-09-21T11:36:38.664Z,32.03
2018-09-21T11:39:16.683Z,30.30
2018-09-21T11:42:16.390Z,32.60
2018-09-21T11:44:51.610Z,22.83
2018-09-21T11:47:23.323Z,32.80
2018-09-21T11:49:54.951Z,28.07
2018-09-21T11:52:30.803Z,33.00
2018-09-21T11:55:03.311Z,30.90
2018-09-21T11:57:36.702Z,35.60
2018-09-21T12:00:11.543Z,28.53
2018-09-21T12:02:43.111Z,26.47
2018-09-21T12:05:16.306Z,33.80
2018-09-21T12:07:47.701Z,32.60
2018-09-21T12:10:19.580Z,33.40
2018-09-21T12:12:52.632Z,52.13
2018-09-21T12:15:25.404Z,25.97
2018-09-21T12:18:18.466Z,31.93
2018-09-21T12:20:52.224Z,32.53
2018-09-21T12:23:24.114Z,35.93
2018-09-21T12:25:53.718Z,27.63
2018-09-21T12:28:23.696Z,32.83
2018-09-21T12:30:58.071Z,23.60
2018-09-21T12:33:32.013Z,27.33
2018-09-21T12:36:04.462Z,22.20
2018-09-21T12:38:36.399Z,16.57
2018-09-21T12:41:12.194Z,9.43
2018-09-21T12:43:43.340Z,8.13
2018-09-21T12:46:35.047Z,11.17
2018-09-21T12:49:07.474Z,22.20
2018-09-21T12:51:39.851Z,15.57
2018-09-21T12:54:17.573Z,30.17
2018-09-21T12:56:50.025Z,15.10
2018-09-21T12:59:23.198Z,12.60
2018-09-21T13:01:59.815Z,17.53
2018-09-21T13:06:10.446Z,16.80
2018-09-21T13:09:15.316Z,8.90
2018-09-21T13:11:49.172Z,13.17
2018-09-21T13:14:19.109Z,7.67
2018-09-21T13:16:51.455Z,21.03
2018-09-21T13:19:23.365Z,11.10
2018-09-21T13:21:54.380Z,11.30
2018-09-21T13:24:27.152Z,27.47
2018-09-21T13:26:57.902Z,92.53
2018-09-21T13:29:41.100Z,15.60
2018-09-21T13:32:20.776Z,19.93
2018-09-21T13:38:04.162Z,23.10
2018-09-21T13:40:58.617Z,20.10
2018-09-21T13:43:33.921Z,12.20
2018-09-21T13:46:21.010Z,10.70
2018-09-21T13:48:58.540Z,29.70
2018-09-21T13:51:30.557Z,9.50
2018-09-21T13:54:05.432Z,15.50
2018-09-21T13:56:37.477Z,6.40
2018-09-21T13:59:10.368Z,13.73
2018-09-21T14:01:53.135Z,11.97
2018-09-21T14:04:35.563Z,6.43
2018-09-21T14:07:14.472Z,8.30
2018-09-21T14:09:52.338Z,10.67
2018-09-21T14:12:26.825Z,10.00
2018-09-21T14:14:59.528Z,12.77
2018-09-21T14:17:32.180Z,5.73
2018-09-21T14:20:09.826Z,33.83
2018-09-21T14:29:10.028Z,11.30
2018-09-21T14:31:45.156Z,39.00
2018-09-21T14:34:27.293Z,38.50
2018-09-21T14:36:58.950Z,15.50
2018-09-21T14:39:29.840Z,40.17
2018-09-21T14:42:07.078Z,27.00
2018-09-21T14:44:43.231Z,22.63
2018-09-21T14:47:34.884Z,23.00
2018-09-21T14:50:08.976Z,27.40
2018-09-21T14:52:43.496Z,12.07
2018-09-21T14:55:31.657Z,9.63
2018-09-21T14:58:06.147Z,12.90
2018-09-21T15:04:41.832Z,12.40
2018-09-21T15:07:15.014Z,17.50
2018-09-21T15:09:45.848Z,18.37
2018-09-21T15:12:18.436Z,14.70
2018-09-21T15:14:49.613Z,23.30
2018-09-21T15:17:19.593Z,12.83
2018-09-21T15:19:50.741Z,10.53
2018-09-21T15:22:22.280Z,14.43
2018-09-21T15:24:52.919Z,12.00
2018-09-21T15:27:23.738Z,24.83
2018-09-21T15:30:26.039Z,110.93
2018-09-21T15:33:29.148Z,34.90
2018-09-21T15:36:02.969Z,33.40
2018-09-21T15:38:34.713Z,6.43
2018-09-21T15:41:05.629Z,15.63
2018-09-21T15:43:52.676Z,18.13
2018-09-21T15:46:24.540Z,9.40
2018-09-21T15:48:58.414Z,15.63
2018-09-21T15:51:30.640Z,17.13
2018-09-21T15:54:03.727Z,17.83
2018-09-21T15:56:36.476Z,13.73
2018-09-21T15:59:08.297Z,109.23
2018-09-21T16:01:59.239Z,46.93
2018-09-21T16:04:39.202Z,28.63
2018-09-21T16:09:56.220Z,18.90
2018-09-21T16:12:35.613Z,20.63
2018-09-21T16:15:21.421Z,31.27
2018-09-21T16:18:05.044Z,17.77
2018-09-21T16:21:39.733Z,131.97
2018-09-21T16:24:22.910Z,48.77
2018-09-21T16:30:08.569Z,56.27
2018-09-21T16:43:04.196Z,12.10
2018-09-21T16:45:35.352Z,26.13
2018-09-21T16:48:07.963Z,111.10
2018-09-21T16:51:37.811Z,153.93
2018-09-21T16:54:37.548Z,21.83
2018-09-21T17:04:37.221Z,14.23
2018-09-21T17:07:25.650Z,15.47
2018-09-21T17:10:01.084Z,17.07
2018-09-21T17:12:54.876Z,29.43
2018-09-21T17:15:34.385Z,31.53
2018-09-21T17:18:20.746Z,146.23
2018-09-21T17:27:39.094Z,141.23
2018-09-21T17:30:28.690Z,42.43
2018-09-21T17:33:06.404Z,83.83
2018-09-21T17:35:39.193Z,20.03
2018-09-21T17:49:36.202Z,45.53
2018-09-21T17:52:42.917Z,33.37
2018-09-21T17:55:19.205Z,70.60
2018-09-21T18:00:45.149Z,41.03
2018-09-21T18:03:32.044Z,94.67
2018-09-21T18:06:25.142Z,26.43
2018-09-21T18:12:04.772Z,120.00
2018-09-21T18:28:41.873Z,68.83
2018-09-21T18:31:13.283Z,52.13
2018-09-21T18:33:49.998Z,37.17
2018-09-21T18:36:23.090Z,41.40
2018-09-21T18:38:56.420Z,26.80
2018-09-21T18:41:28.036Z,44.93
2018-09-21T18:44:09.407Z,47.80
2018-09-21T18:46:45.806Z,153.17
2018-09-21T18:49:26.187Z,30.63
2018-09-21T18:51:58.416Z,26.43
2018-09-21T18:54:29.897Z,85.20
2018-09-21T18:56:59.612Z,35.97
2018-09-21T18:59:29.144Z,31.83
2018-09-21T19:02:04.726Z,55.37
2018-09-21T19:04:44.435Z,65.23
2018-09-21T19:07:24.067Z,57.63
2018-09-21T19:09:57.387Z,32.13
2018-09-21T19:12:38.112Z,45.47
2018-09-21T19:15:19.814Z,38.03
2018-09-21T19:18:07.239Z,46.93
2018-09-21T19:20:48.261Z,35.23
2018-09-21T19:24:25.352Z,33.83
2018-09-21T19:26:59.336Z,50.17
2018-09-21T19:29:35.206Z,44.47
2018-09-21T19:32:11.648Z,42.80
2018-09-21T19:34:52.421Z,23.27
2018-09-21T19:37:34.394Z,25.60
2018-09-21T19:40:12.916Z,13.10
2018-09-21T19:43:09.703Z,159.10
2018-09-21T19:45:44.494Z,25.63
2018-09-21T19:48:19.659Z,60.47
2018-09-21T19:50:54.553Z,37.50
2018-09-21T19:53:29.957Z,30.37
2018-09-21T19:56:01.579Z,23.90
2018-09-21T19:58:36.506Z,27.17
2018-09-21T20:01:10.405Z,36.13
2018-09-21T20:03:47.462Z,21.07
2018-09-21T20:06:23.401Z,18.40
2018-09-21T20:08:57.418Z,24.27
2018-09-21T20:11:45.465Z,52.20
2018-09-21T20:14:21.924Z,26.73
2018-09-21T20:17:06.277Z,28.00
2018-09-21T20:19:38.384Z,29.40
2018-09-21T20:22:12.894Z,28.50
2018-09-21T20:24:44.800Z,51.87
2018-09-21T20:27:25.390Z,87.00
2018-09-21T20:30:09.827Z,37.37
2018-09-21T20:32:56.130Z,80.63
2018-09-21T20:35:36.441Z,45.87
2018-09-21T20:38:10.595Z,68.03
2018-09-21T20:40:45.680Z,81.20
2018-09-21T20:43:19.837Z,78.70
2018-09-21T20:45:52.835Z,53.70
2018-09-21T20:48:24.623Z,38.33
2018-09-21T20:53:42.183Z,120.27
2018-09-21T20:59:00.154Z,118.90
2018-09-21T21:01:37.529Z,56.83
2018-09-21T21:04:13.704Z,33.03
2018-09-21T21:06:50.563Z,38.53
2018-09-21T21:09:22.813Z,48.27
2018-09-21T21:11:55.819Z,174.77
2018-09-21T21:14:31.447Z,147.27
2018-09-21T21:17:16.864Z,114.47
2018-09-21T21:20:01.590Z,47.37
2018-09-21T21:22:39.624Z,179.03
2018-09-21T21:25:22.363Z,156.73
2018-09-21T21:27:55.804Z,371.23
2018-09-21T21:30:28.670Z,197.50
2018-09-21T21:32:59.743Z,190.60
2018-09-21T21:35:30.611Z,112.17
2018-09-21T21:38:01.919Z,116.37
2018-09-21T21:40:33.785Z,211.43
2018-09-21T21:43:08.421Z,109.87
2018-09-21T21:45:42.172Z,90.10
2018-09-21T21:48:13.147Z,103.00
2018-09-21T21:50:48.230Z,126.83
2018-09-21T21:53:26.693Z,132.27
2018-09-21T21:56:04.800Z,67.13
2018-09-21T21:58:45.733Z,93.17
2018-09-21T22:01:22.578Z,51.67
2018-09-21T22:04:03.055Z,80.93
2018-09-21T22:06:34.923Z,44.03
2018-09-21T22:09:10.563Z,45.50
2018-09-21T22:11:47.114Z,121.70
2018-09-21T22:14:18.530Z,210.67
2018-09-21T22:16:49.074Z,59.70
2018-09-21T22:19:30.370Z,93.17
2018-09-21T22:22:11.894Z,216.80
2018-09-21T22:24:47.083Z,212.37
2018-09-21T22:27:23.460Z,344.33
2018-09-21T22:30:04.281Z,399.47
2018-09-21T22:32:37.425Z,261.00
2018-09-21T22:35:15.319Z,170.17
2018-09-21T22:37:53.393Z,229.07
2018-09-21T22:40:28.353Z,274.77
2018-09-21T22:43:11.379Z,146.87
2018-09-21T22:45:43.967Z,69.90
2018-09-21T22:48:18.652Z,74.70
2018-09-21T22:53:33.266Z,365.10
2018-09-21T22:56:04.335Z,118.40
2018-09-21T22:58:35.841Z,116.40
2018-09-21T23:01:09.878Z,81.50
2018-09-21T23:03:45.451Z,103.07
2018-09-21T23:06:15.729Z,97.80
2018-09-21T23:08:46.843Z,129.50
2018-09-21T23:11:22.450Z,71.43
2018-09-21T23:14:24.734Z,30.43
2018-09-21T23:16:57.186Z,73.67
2018-09-21T23:19:29.891Z,40.60
2018-09-21T23:22:01.394Z,55.17
2018-09-21T23:24:32.410Z,46.70
2018-09-21T23:27:03.469Z,47.07
2018-09-21T23:29:36.254Z,53.27
2018-09-21T23:32:10.884Z,77.87
2018-09-21T23:34:41.718Z,119.63
2018-09-21T23:37:12.472Z,60.70
2018-09-21T23:39:42.217Z,85.00
2018-09-21T23:42:12.746Z,55.10
2018-09-21T23:44:43.196Z,70.20
2018-09-21T23:47:13.710Z,138.97
2018-09-21T23:49:44.625Z,80.27
2018-09-21T23:52:14.467Z,34.33
2018-09-21T23:54:44.170Z,74.23
2018-09-21T23:57:15.059Z,46.43
2018-09-21T23:59:45.347Z,59.03
